sensor_id;sensor_type;location;lat;lon;timestamp;pressure;altitude;pressure_sealevel;temperature;humidity
38022;BME280;23832;43.216;27.946;2023-03-26T00:01:03;99945.00;;;13.05;100.00
38022;BME280;23832;43.216;27.946;2023-03-26T00:03:07;99947.63;;;13.19;100.00
38022;BME280;23832;43.216;27.946;2023-03-26T00:05:09;99972.91;;;12.82;100.00
38022;BME280;23832;43.216;27.946;2023-03-26T00:07:14;99949.50;;;12.92;100.00
38022;BME280;23832;43.216;27.946;2023-03-26T00:09:18;99943.00;;;12.94;100.00
38022;BME280;23832;43.216;27.946;2023-03-26T00:11:23;99950.09;;;12.74;100.00
38022;BME280;23832;43.216;27.946;2023-03-26T00:13:25;99974.31;;;12.71;100.00
38022;BME280;23832;43.216;27.946;2023-03-26T00:15:27;99963.13;;;13.02;100.00
38022;BME280;23832;43.216;27.946;2023-03-26T00:17:29;99961.72;;;13.06;100.00
38022;BME280;23832;43.216;27.946;2023-03-26T00:19:31;99971.28;;;13.07;100.00
38022;BME280;23832;43.216;27.946;2023-03-26T00:21:33;99968.22;;;13.30;100.00
38022;BME280;23832;43.216;27.946;2023-03-26T00:23:36;99972.50;;;13.31;100.00
38022;BME280;23832;43.216;27.946;2023-03-26T00:25:39;99970.88;;;13.30;100.00
38022;BME280;23832;43.216;27.946;2023-03-26T00:27:42;99975.75;;;13.40;100.00
38022;BME280;23832;43.216;27.946;2023-03-26T00:29:45;99976.94;;;13.37;100.00
38022;BME280;23832;43.216;27.946;2023-03-26T00:31:47;99973.28;;;13.38;100.00
38022;BME280;23832;43.216;27.946;2023-03-26T00:33:52;99975.53;;;13.41;100.00
38022;BME280;23832;43.216;27.946;2023-03-26T00:35:56;99963.75;;;13.24;100.00
38022;BME280;23832;43.216;27.946;2023-03-26T00:38:00;99988.38;;;13.31;100.00
38022;BME280;23832;43.216;27.946;2023-03-26T00:40:02;99995.28;;;13.39;100.00
38022;BME280;23832;43.216;27.946;2023-03-26T00:42:08;99997.69;;;13.53;100.00
38022;BME280;23832;43.216;27.946;2023-03-26T00:44:14;99985.69;;;13.57;100.00
38022;BME280;23832;43.216;27.946;2023-03-26T00:46:16;99987.91;;;13.47;100.00
38022;BME280;23832;43.216;27.946;2023-03-26T00:48:19;99996.88;;;13.59;100.00
38022;BME280;23832;43.216;27.946;2023-03-26T00:50:22;99992.81;;;13.57;100.00
38022;BME280;23832;43.216;27.946;2023-03-26T00:52:24;99986.72;;;13.50;100.00
38022;BME280;23832;43.216;27.946;2023-03-26T00:54:28;99999.53;;;13.59;100.00
38022;BME280;23832;43.216;27.946;2023-03-26T00:56:30;99983.63;;;13.53;100.00
38022;BME280;23832;43.216;27.946;2023-03-26T00:58:33;99992.19;;;13.61;100.00
38022;BME280;23832;43.216;27.946;2023-03-26T01:00:41;99985.09;;;13.42;100.00
38022;BME280;23832;43.216;27.946;2023-03-26T01:02:43;99999.78;;;13.31;100.00
38022;BME280;23832;43.216;27.946;2023-03-26T01:04:51;100001.41;;;13.39;100.00
38022;BME280;23832;43.216;27.946;2023-03-26T01:06:57;100000.81;;;13.24;100.00
38022;BME280;23832;43.216;27.946;2023-03-26T01:09:03;100001.41;;;13.26;100.00
38022;BME280;23832;43.216;27.946;2023-03-26T01:11:09;100003.44;;;13.24;100.00
38022;BME280;23832;43.216;27.946;2023-03-26T01:13:13;99997.94;;;13.32;100.00
38022;BME280;23832;43.216;27.946;2023-03-26T01:15:17;99994.47;;;13.18;100.00
38022;BME280;23832;43.216;27.946;2023-03-26T01:17:20;99993.66;;;12.98;100.00
38022;BME280;23832;43.216;27.946;2023-03-26T01:19:27;99995.69;;;12.83;100.00
38022;BME280;23832;43.216;27.946;2023-03-26T01:21:31;99996.72;;;12.95;100.00
38022;BME280;23832;43.216;27.946;2023-03-26T01:23:41;99974.13;;;12.79;100.00
38022;BME280;23832;43.216;27.946;2023-03-26T01:25:51;99996.94;;;12.87;100.00
38022;BME280;23832;43.216;27.946;2023-03-26T01:27:56;99998.53;;;13.01;100.00
38022;BME280;23832;43.216;27.946;2023-03-26T01:30:04;100002.41;;;13.05;100.00
38022;BME280;23832;43.216;27.946;2023-03-26T01:32:23;100004.25;;;13.24;100.00
38022;BME280;23832;43.216;27.946;2023-03-26T01:34:40;99992.06;;;13.23;100.00
38022;BME280;23832;43.216;27.946;2023-03-26T01:36:52;99998.56;;;13.21;100.00
38022;BME280;23832;43.216;27.946;2023-03-26T01:39:01;99994.66;;;13.17;100.00
38022;BME280;23832;43.216;27.946;2023-03-26T01:41:09;100002.63;;;13.03;100.00
38022;BME280;23832;43.216;27.946;2023-03-26T01:43:20;99985.31;;;13.07;100.00
38022;BME280;23832;43.216;27.946;2023-03-26T01:45:27;99976.94;;;13.11;100.00
38022;BME280;23832;43.216;27.946;2023-03-26T01:47:31;99991.41;;;13.15;100.00
38022;BME280;23832;43.216;27.946;2023-03-26T01:49:34;99993.88;;;13.23;100.00
38022;BME280;23832;43.216;27.946;2023-03-26T01:51:37;99991.41;;;13.15;100.00
38022;BME280;23832;43.216;27.946;2023-03-26T01:53:42;99990.81;;;13.13;100.00
38022;BME280;23832;43.216;27.946;2023-03-26T01:55:53;99990.41;;;13.16;100.00
38022;BME280;23832;43.216;27.946;2023-03-26T01:58:06;99997.94;;;13.25;100.00
38022;BME280;23832;43.216;27.946;2023-03-26T02:00:18;99996.13;;;13.26;100.00
38022;BME280;23832;43.216;27.946;2023-03-26T02:02:25;99995.69;;;13.29;100.00
38022;BME280;23832;43.216;27.946;2023-03-26T02:04:33;99997.75;;;13.33;100.00
38022;BME280;23832;43.216;27.946;2023-03-26T02:06:39;99993.47;;;13.13;100.00
38022;BME280;23832;43.216;27.946;2023-03-26T02:08:47;99990.81;;;13.13;100.00
38022;BME280;23832;43.216;27.946;2023-03-26T02:10:55;99992.44;;;13.27;100.00
38022;BME280;23832;43.216;27.946;2023-03-26T02:13:00;99991.41;;;13.28;100.00
38022;BME280;23832;43.216;27.946;2023-03-26T02:15:03;99993.84;;;13.36;100.00
38022;BME280;23832;43.216;27.946;2023-03-26T02:17:05;99984.28;;;13.35;100.00
38022;BME280;23832;43.216;27.946;2023-03-26T02:19:09;99989.41;;;13.30;100.00
38022;BME280;23832;43.216;27.946;2023-03-26T02:21:16;99987.75;;;13.29;100.00
38022;BME280;23832;43.216;27.946;2023-03-26T02:23:19;99970.44;;;13.33;100.00
38022;BME280;23832;43.216;27.946;2023-03-26T02:25:22;99992.63;;;13.45;100.00
38022;BME280;23832;43.216;27.946;2023-03-26T02:27:24;99988.16;;;13.32;100.00
38022;BME280;23832;43.216;27.946;2023-03-26T02:29:28;99991.63;;;13.20;100.00
38022;BME280;23832;43.216;27.946;2023-03-26T02:31:30;99991.22;;;13.29;100.00
38022;BME280;23832;43.216;27.946;2023-03-26T02:33:32;99995.50;;;13.30;100.00
38022;BME280;23832;43.216;27.946;2023-03-26T02:35:34;99983.47;;;13.08;100.00
38022;BME280;23832;43.216;27.946;2023-03-26T02:37:36;99983.91;;;13.25;100.00
38022;BME280;23832;43.216;27.946;2023-03-26T02:39:38;99989.16;;;13.38;100.00
38022;BME280;23832;43.216;27.946;2023-03-26T02:41:41;99987.31;;;13.39;100.00
38022;BME280;23832;43.216;27.946;2023-03-26T02:43:43;99987.53;;;13.37;100.00
38022;BME280;23832;43.216;27.946;2023-03-26T02:45:47;99985.09;;;13.29;100.00
38022;BME280;23832;43.216;27.946;2023-03-26T02:47:49;99990.41;;;13.29;100.00
38022;BME280;23832;43.216;27.946;2023-03-26T02:49:51;99991.81;;;13.38;100.00
38022;BME280;23832;43.216;27.946;2023-03-26T02:51:54;99988.97;;;13.33;100.00
38022;BME280;23832;43.216;27.946;2023-03-26T02:53:56;99988.13;;;13.46;100.00
38022;BME280;23832;43.216;27.946;2023-03-26T02:55:59;99991.63;;;13.40;100.00
38022;BME280;23832;43.216;27.946;2023-03-26T02:58:02;100001.03;;;13.22;100.00
38022;BME280;23832;43.216;27.946;2023-03-26T03:00:06;100005.28;;;13.30;100.00
38022;BME280;23832;43.216;27.946;2023-03-26T03:02:16;100004.59;;;13.61;100.00
38022;BME280;23832;43.216;27.946;2023-03-26T03:04:22;99997.00;;;13.84;100.00
38022;BME280;23832;43.216;27.946;2023-03-26T03:06:24;99994.38;;;13.71;100.00
38022;BME280;23832;43.216;27.946;2023-03-26T03:08:30;99993.09;;;13.94;100.00
38022;BME280;23832;43.216;27.946;2023-03-26T03:10:33;99991.88;;;13.89;100.00
38022;BME280;23832;43.216;27.946;2023-03-26T03:12:37;100005.78;;;13.72;100.00
38022;BME280;23832;43.216;27.946;2023-03-26T03:14:39;100005.78;;;13.72;100.00
38022;BME280;23832;43.216;27.946;2023-03-26T03:16:41;100008.06;;;13.68;100.00
38022;BME280;23832;43.216;27.946;2023-03-26T03:18:44;100002.69;;;13.81;100.00
38022;BME280;23832;43.216;27.946;2023-03-26T03:20:53;99997.41;;;13.81;100.00
38022;BME280;23832;43.216;27.946;2023-03-26T03:22:55;99998.41;;;13.87;100.00
38022;BME280;23832;43.216;27.946;2023-03-26T03:24:58;100013.50;;;13.80;100.00
38022;BME280;23832;43.216;27.946;2023-03-26T03:27:00;100010.72;;;13.61;100.00
38022;BME280;23832;43.216;27.946;2023-03-26T03:29:02;100019.84;;;13.79;100.00
38022;BME280;23832;43.216;27.946;2023-03-26T03:31:04;100010.63;;;13.88;100.00
38022;BME280;23832;43.216;27.946;2023-03-26T03:33:05;100013.63;;;14.05;100.00
38022;BME280;23832;43.216;27.946;2023-03-26T03:35:09;100013.06;;;13.96;100.00
38022;BME280;23832;43.216;27.946;2023-03-26T03:37:11;100011.00;;;13.98;100.00
38022;BME280;23832;43.216;27.946;2023-03-26T03:39:13;100011.03;;;13.91;100.00
38022;BME280;23832;43.216;27.946;2023-03-26T03:41:15;100008.94;;;14.00;100.00
38022;BME280;23832;43.216;27.946;2023-03-26T03:43:18;100020.94;;;14.09;100.00
38022;BME280;23832;43.216;27.946;2023-03-26T03:45:20;100030.94;;;14.07;100.00
38022;BME280;23832;43.216;27.946;2023-03-26T03:47:22;100026.69;;;14.00;100.00
38022;BME280;23832;43.216;27.946;2023-03-26T03:49:24;100033.59;;;14.07;100.00
38022;BME280;23832;43.216;27.946;2023-03-26T03:51:27;100036.84;;;14.09;100.00
38022;BME280;23832;43.216;27.946;2023-03-26T03:53:29;100034.03;;;14.04;100.00
38022;BME280;23832;43.216;27.946;2023-03-26T03:55:31;100041.59;;;13.94;100.00
38022;BME280;23832;43.216;27.946;2023-03-26T03:57:34;100032.59;;;14.02;100.00
38022;BME280;23832;43.216;27.946;2023-03-26T03:59:36;100041.56;;;14.01;100.00
38022;BME280;23832;43.216;27.946;2023-03-26T04:01:38;100037.47;;;14.11;100.00
38022;BME280;23832;43.216;27.946;2023-03-26T04:03:43;100039.84;;;14.19;100.00
38022;BME280;23832;43.216;27.946;2023-03-26T04:05:45;100030.72;;;14.09;100.00
38022;BME280;23832;43.216;27.946;2023-03-26T04:07:50;100035.63;;;14.12;100.00
38022;BME280;23832;43.216;27.946;2023-03-26T04:09:52;100031.75;;;14.08;100.00
38022;BME280;23832;43.216;27.946;2023-03-26T04:11:54;100028.88;;;14.16;100.00
38022;BME280;23832;43.216;27.946;2023-03-26T04:13:56;100027.47;;;14.13;100.00
38022;BME280;23832;43.216;27.946;2023-03-26T04:15:59;100040.25;;;14.30;100.00
38022;BME280;23832;43.216;27.946;2023-03-26T04:18:01;100034.31;;;14.28;100.00
38022;BME280;23832;43.216;27.946;2023-03-26T04:20:04;100037.34;;;14.38;100.00
38022;BME280;23832;43.216;27.946;2023-03-26T04:22:07;100035.66;;;14.50;100.00
38022;BME280;23832;43.216;27.946;2023-03-26T04:24:12;100039.69;;;14.59;100.00
38022;BME280;23832;43.216;27.946;2023-03-26T04:26:16;100033.59;;;14.59;100.00
38022;BME280;23832;43.216;27.946;2023-03-26T04:28:26;100030.53;;;14.55;100.00
38022;BME280;23832;43.216;27.946;2023-03-26T04:30:29;100031.63;;;14.47;100.00
38022;BME280;23832;43.216;27.946;2023-03-26T04:32:33;100028.03;;;14.67;100.00
38022;BME280;23832;43.216;27.946;2023-03-26T04:34:37;100035.25;;;14.85;100.00
38022;BME280;23832;43.216;27.946;2023-03-26T04:36:39;100037.38;;;15.01;100.00
38022;BME280;23832;43.216;27.946;2023-03-26T04:38:44;100033.69;;;15.02;100.00
38022;BME280;23832;43.216;27.946;2023-03-26T04:40:50;100046.97;;;15.02;100.00
38022;BME280;23832;43.216;27.946;2023-03-26T04:42:51;100041.59;;;15.09;100.00
38022;BME280;23832;43.216;27.946;2023-03-26T04:44:54;100050.66;;;15.01;100.00
38022;BME280;23832;43.216;27.946;2023-03-26T04:46:59;100047.44;;;15.17;100.00
38022;BME280;23832;43.216;27.946;2023-03-26T04:49:02;100047.28;;;15.12;100.00
38022;BME280;23832;43.216;27.946;2023-03-26T04:51:05;100059.00;;;15.04;100.00
38022;BME280;23832;43.216;27.946;2023-03-26T04:53:27;100054.81;;;15.15;100.00
38022;BME280;23832;43.216;27.946;2023-03-26T04:55:34;100057.72;;;15.07;100.00
38022;BME280;23832;43.216;27.946;2023-03-26T04:57:41;100055.88;;;15.08;100.00
38022;BME280;23832;43.216;27.946;2023-03-26T04:59:46;100054.94;;;15.02;100.00
38022;BME280;23832;43.216;27.946;2023-03-26T05:01:48;100063.44;;;15.11;100.00
38022;BME280;23832;43.216;27.946;2023-03-26T05:03:50;100066.41;;;14.96;100.00
38022;BME280;23832;43.216;27.946;2023-03-26T05:05:52;100065.06;;;15.12;100.00
38022;BME280;23832;43.216;27.946;2023-03-26T05:07:54;100074.22;;;15.16;100.00
38022;BME280;23832;43.216;27.946;2023-03-26T05:09:56;100074.94;;;15.29;100.00
38022;BME280;23832;43.216;27.946;2023-03-26T05:11:58;100075.34;;;15.51;100.00
38022;BME280;23832;43.216;27.946;2023-03-26T05:14:01;100067.38;;;15.26;100.00
38022;BME280;23832;43.216;27.946;2023-03-26T05:16:04;100066.56;;;15.51;100.00
38022;BME280;23832;43.216;27.946;2023-03-26T05:18:08;100066.13;;;15.54;100.00
38022;BME280;23832;43.216;27.946;2023-03-26T05:20:16;100071.50;;;15.47;100.00
38022;BME280;23832;43.216;27.946;2023-03-26T05:22:20;100065.22;;;15.42;100.00
38022;BME280;23832;43.216;27.946;2023-03-26T05:24:22;100066.41;;;15.46;100.00
38022;BME280;23832;43.216;27.946;2023-03-26T05:26:25;100067.19;;;15.28;100.00
38022;BME280;23832;43.216;27.946;2023-03-26T05:28:28;100080.03;;;15.31;100.00
38022;BME280;23832;43.216;27.946;2023-03-26T05:30:32;100075.03;;;15.41;100.00
38022;BME280;23832;43.216;27.946;2023-03-26T05:32:34;100077.25;;;15.69;100.00
38022;BME280;23832;43.216;27.946;2023-03-26T05:34:37;100070.63;;;15.78;100.00
38022;BME280;23832;43.216;27.946;2023-03-26T05:36:59;100076.50;;;15.80;100.00
38022;BME280;23832;43.216;27.946;2023-03-26T05:39:01;100064.25;;;15.98;100.00
38022;BME280;23832;43.216;27.946;2023-03-26T05:41:04;100070.91;;;15.88;100.00
38022;BME280;23832;43.216;27.946;2023-03-26T05:43:07;100049.81;;;15.94;100.00
38022;BME280;23832;43.216;27.946;2023-03-26T05:45:11;100061.19;;;16.01;100.00
38022;BME280;23832;43.216;27.946;2023-03-26T05:47:15;100060.56;;;16.17;100.00
38022;BME280;23832;43.216;27.946;2023-03-26T05:49:17;100056.72;;;16.31;100.00
38022;BME280;23832;43.216;27.946;2023-03-26T05:51:19;100063.88;;;16.61;100.00
38022;BME280;23832;43.216;27.946;2023-03-26T05:53:24;100060.63;;;16.59;100.00
38022;BME280;23832;43.216;27.946;2023-03-26T05:55:27;100063.19;;;16.84;100.00
38022;BME280;23832;43.216;27.946;2023-03-26T05:57:29;100067.31;;;17.21;100.00
38022;BME280;23832;43.216;27.946;2023-03-26T05:59:31;100067.56;;;17.55;100.00
38022;BME280;23832;43.216;27.946;2023-03-26T06:01:34;100076.00;;;17.28;100.00
38022;BME280;23832;43.216;27.946;2023-03-26T06:03:38;100084.97;;;16.92;100.00
38022;BME280;23832;43.216;27.946;2023-03-26T06:05:41;100063.09;;;16.90;100.00
38022;BME280;23832;43.216;27.946;2023-03-26T06:07:44;100082.31;;;17.04;100.00
38022;BME280;23832;43.216;27.946;2023-03-26T06:09:46;100088.06;;;16.89;100.00
38022;BME280;23832;43.216;27.946;2023-03-26T06:11:48;100082.59;;;16.72;100.00
38022;BME280;23832;43.216;27.946;2023-03-26T06:13:49;100082.56;;;16.24;100.00
38022;BME280;23832;43.216;27.946;2023-03-26T06:15:53;100088.94;;;16.53;100.00
38022;BME280;23832;43.216;27.946;2023-03-26T06:17:57;100083.41;;;16.73;100.00
38022;BME280;23832;43.216;27.946;2023-03-26T06:20:02;100076.41;;;16.90;100.00
38022;BME280;23832;43.216;27.946;2023-03-26T06:22:06;100073.34;;;16.75;100.00
38022;BME280;23832;43.216;27.946;2023-03-26T06:24:08;100072.56;;;16.86;100.00
38022;BME280;23832;43.216;27.946;2023-03-26T06:26:10;100088.47;;;17.05;100.00
38022;BME280;23832;43.216;27.946;2023-03-26T06:28:12;100088.53;;;17.40;100.00
38022;BME280;23832;43.216;27.946;2023-03-26T06:30:15;100076.69;;;17.59;100.00
38022;BME280;23832;43.216;27.946;2023-03-26T06:32:17;100076.28;;;17.74;100.00
38022;BME280;23832;43.216;27.946;2023-03-26T06:34:19;100075.34;;;17.80;100.00
38022;BME280;23832;43.216;27.946;2023-03-26T06:36:23;100068.63;;;17.89;100.00
38022;BME280;23832;43.216;27.946;2023-03-26T06:38:25;100078.00;;;17.56;100.00
38022;BME280;23832;43.216;27.946;2023-03-26T06:40:27;100078.09;;;17.26;100.00
38022;BME280;23832;43.216;27.946;2023-03-26T06:42:29;100088.69;;;17.03;100.00
38022;BME280;23832;43.216;27.946;2023-03-26T06:44:31;100086.81;;;16.92;100.00
38022;BME280;23832;43.216;27.946;2023-03-26T06:46:33;100085.69;;;16.99;100.00
38022;BME280;23832;43.216;27.946;2023-03-26T06:48:35;100093.47;;;17.24;100.00
38022;BME280;23832;43.216;27.946;2023-03-26T06:50:37;100098.38;;;17.39;100.00
38022;BME280;23832;43.216;27.946;2023-03-26T06:52:40;100105.91;;;17.66;100.00
38022;BME280;23832;43.216;27.946;2023-03-26T06:54:43;100096.91;;;17.90;100.00
38022;BME280;23832;43.216;27.946;2023-03-26T06:56:45;100099.19;;;18.10;100.00
38022;BME280;23832;43.216;27.946;2023-03-26T06:58:47;100098.47;;;18.26;100.00
38022;BME280;23832;43.216;27.946;2023-03-26T07:00:52;100098.66;;;18.36;100.00
38022;BME280;23832;43.216;27.946;2023-03-26T07:02:54;100090.97;;;18.80;100.00
38022;BME280;23832;43.216;27.946;2023-03-26T07:04:59;100102.84;;;18.73;100.00
38022;BME280;23832;43.216;27.946;2023-03-26T07:07:00;100093.81;;;18.33;100.00
38022;BME280;23832;43.216;27.946;2023-03-26T07:09:06;100104.50;;;18.50;100.00
38022;BME280;23832;43.216;27.946;2023-03-26T07:11:08;100087.13;;;18.48;100.00
38022;BME280;23832;43.216;27.946;2023-03-26T07:13:10;100095.56;;;18.85;100.00
38022;BME280;23832;43.216;27.946;2023-03-26T07:15:12;100119.91;;;18.71;100.00
38022;BME280;23832;43.216;27.946;2023-03-26T07:17:14;100107.69;;;18.76;100.00
38022;BME280;23832;43.216;27.946;2023-03-26T07:19:16;100094.94;;;18.94;100.00
38022;BME280;23832;43.216;27.946;2023-03-26T07:21:18;100094.56;;;19.53;92.20
38022;BME280;23832;43.216;27.946;2023-03-26T07:23:21;100091.81;;;20.25;82.99
38022;BME280;23832;43.216;27.946;2023-03-26T07:25:26;100096.44;;;20.52;80.63
38022;BME280;23832;43.216;27.946;2023-03-26T07:27:35;100099.94;;;21.06;72.93
38022;BME280;23832;43.216;27.946;2023-03-26T07:29:44;100092.31;;;21.25;70.80
38022;BME280;23832;43.216;27.946;2023-03-26T07:31:51;100099.63;;;21.72;69.78
38022;BME280;23832;43.216;27.946;2023-03-26T07:33:59;100095.41;;;21.81;66.21
38022;BME280;23832;43.216;27.946;2023-03-26T07:36:12;100096.78;;;22.41;63.87
38022;BME280;23832;43.216;27.946;2023-03-26T07:38:21;100100.69;;;22.96;60.50
38022;BME280;23832;43.216;27.946;2023-03-26T07:40:36;100093.16;;;22.98;59.50
38022;BME280;23832;43.216;27.946;2023-03-26T07:42:46;100088.56;;;23.75;56.38
38022;BME280;23832;43.216;27.946;2023-03-26T07:44:51;100081.84;;;23.72;55.29
38022;BME280;23832;43.216;27.946;2023-03-26T07:46:58;100088.53;;;24.55;52.44
38022;BME280;23832;43.216;27.946;2023-03-26T07:49:01;100073.56;;;25.17;50.72
38022;BME280;23832;43.216;27.946;2023-03-26T07:51:04;100081.41;;;24.69;50.12
38022;BME280;23832;43.216;27.946;2023-03-26T07:53:06;100061.53;;;24.99;48.55
38022;BME280;23832;43.216;27.946;2023-03-26T07:55:10;100060.06;;;24.78;48.53
38022;BME280;23832;43.216;27.946;2023-03-26T07:57:15;100060.38;;;24.27;49.54
38022;BME280;23832;43.216;27.946;2023-03-26T07:59:19;100061.13;;;22.81;50.58
38022;BME280;23832;43.216;27.946;2023-03-26T08:01:26;100057.06;;;22.69;52.29
38022;BME280;23832;43.216;27.946;2023-03-26T08:03:40;100053.25;;;22.34;54.04
38022;BME280;23832;43.216;27.946;2023-03-26T08:05:49;100048.84;;;22.07;54.72
38022;BME280;23832;43.216;27.946;2023-03-26T08:07:55;100050.66;;;22.75;53.63
38022;BME280;23832;43.216;27.946;2023-03-26T08:10:03;100057.63;;;23.42;51.99
38022;BME280;23832;43.216;27.946;2023-03-26T08:12:09;100056.31;;;23.24;52.55
38022;BME280;23832;43.216;27.946;2023-03-26T08:14:22;100060.06;;;23.38;51.19
38022;BME280;23832;43.216;27.946;2023-03-26T08:16:27;100059.75;;;23.75;50.26
38022;BME280;23832;43.216;27.946;2023-03-26T08:18:37;100062.31;;;24.06;49.60
38022;BME280;23832;43.216;27.946;2023-03-26T08:20:42;100053.31;;;23.66;50.21
38022;BME280;23832;43.216;27.946;2023-03-26T08:22:48;100047.03;;;24.90;48.38
38022;BME280;23832;43.216;27.946;2023-03-26T08:24:57;100054.06;;;26.21;46.19
38022;BME280;23832;43.216;27.946;2023-03-26T08:27:02;100054.22;;;27.37;43.74
38022;BME280;23832;43.216;27.946;2023-03-26T08:29:11;100055.59;;;28.45;42.09
38022;BME280;23832;43.216;27.946;2023-03-26T08:31:35;100063.44;;;29.05;40.97
38022;BME280;23832;43.216;27.946;2023-03-26T08:33:39;100051.31;;;29.33;39.15
38022;BME280;23832;43.216;27.946;2023-03-26T08:35:41;100052.81;;;29.88;38.28
38022;BME280;23832;43.216;27.946;2023-03-26T08:37:44;100047.97;;;30.50;37.01
38022;BME280;23832;43.216;27.946;2023-03-26T08:39:45;100053.91;;;30.96;35.76
38022;BME280;23832;43.216;27.946;2023-03-26T08:44:24;100038.81;;;32.22;35.80
38022;BME280;23832;43.216;27.946;2023-03-26T08:48:57;100044.03;;;33.22;32.63
38022;BME280;23832;43.216;27.946;2023-03-26T08:51:14;100031.34;;;33.51;31.18
38022;BME280;23832;43.216;27.946;2023-03-26T08:55:51;100050.00;;;34.10;30.01
38022;BME280;23832;43.216;27.946;2023-03-26T08:58:16;100052.63;;;34.59;29.92
38022;BME280;23832;43.216;27.946;2023-03-26T09:00:34;100045.34;;;34.51;29.85
38022;BME280;23832;43.216;27.946;2023-03-26T09:09:58;100046.22;;;29.40;34.34
38022;BME280;23832;43.216;27.946;2023-03-26T09:16:53;100050.25;;;26.46;38.77
38022;BME280;23832;43.216;27.946;2023-03-26T09:19:13;100047.69;;;25.93;39.44
38022;BME280;23832;43.216;27.946;2023-03-26T09:21:36;100043.78;;;25.51;40.13
38022;BME280;23832;43.216;27.946;2023-03-26T09:23:56;100083.09;;;25.33;40.74
38022;BME280;23832;43.216;27.946;2023-03-26T09:31:06;100066.00;;;24.30;42.11
38022;BME280;23832;43.216;27.946;2023-03-26T09:35:39;100068.84;;;23.95;42.55
38022;BME280;23832;43.216;27.946;2023-03-26T09:37:56;100070.13;;;24.07;42.53
38022;BME280;23832;43.216;27.946;2023-03-26T09:40:01;100069.88;;;25.03;40.87
38022;BME280;23832;43.216;27.946;2023-03-26T09:42:08;100073.09;;;26.91;38.51
38022;BME280;23832;43.216;27.946;2023-03-26T09:46:43;100069.56;;;29.19;35.28
38022;BME280;23832;43.216;27.946;2023-03-26T09:48:49;100066.53;;;29.12;35.37
38022;BME280;23832;43.216;27.946;2023-03-26T09:51:05;100065.59;;;28.94;35.21
38022;BME280;23832;43.216;27.946;2023-03-26T09:53:18;100073.97;;;28.48;35.07
38022;BME280;23832;43.216;27.946;2023-03-26T09:55:28;100114.19;;;30.29;33.78
38022;BME280;23832;43.216;27.946;2023-03-26T09:57:38;100078.56;;;31.63;31.69
38022;BME280;23832;43.216;27.946;2023-03-26T09:59:52;100082.56;;;32.04;31.72
38022;BME280;23832;43.216;27.946;2023-03-26T10:01:58;100070.56;;;32.68;31.21
38022;BME280;23832;43.216;27.946;2023-03-26T10:06:29;100065.03;;;34.68;29.89
38022;BME280;23832;43.216;27.946;2023-03-26T10:08:38;100072.88;;;35.26;28.86
38022;BME280;23832;43.216;27.946;2023-03-26T10:10:48;100065.66;;;34.50;28.35
38022;BME280;23832;43.216;27.946;2023-03-26T10:12:53;100066.53;;;34.94;28.37
38022;BME280;23832;43.216;27.946;2023-03-26T10:15:02;100078.22;;;34.38;29.09
38022;BME280;23832;43.216;27.946;2023-03-26T10:17:23;100081.44;;;34.40;28.60
38022;BME280;23832;43.216;27.946;2023-03-26T10:19:44;100094.09;;;34.45;28.29
38022;BME280;23832;43.216;27.946;2023-03-26T10:21:52;100095.47;;;35.07;27.64
38022;BME280;23832;43.216;27.946;2023-03-26T10:24:04;100093.94;;;35.69;27.28
38022;BME280;23832;43.216;27.946;2023-03-26T10:28:36;100096.94;;;31.75;30.06
38022;BME280;23832;43.216;27.946;2023-03-26T10:30:47;100108.56;;;31.55;30.26
38022;BME280;23832;43.216;27.946;2023-03-26T10:32:57;100099.16;;;31.35;30.33
38022;BME280;23832;43.216;27.946;2023-03-26T10:35:07;100101.50;;;31.54;30.56
38022;BME280;23832;43.216;27.946;2023-03-26T10:37:19;100090.38;;;32.06;30.19
38022;BME280;23832;43.216;27.946;2023-03-26T10:39:33;100096.63;;;31.13;30.56
38022;BME280;23832;43.216;27.946;2023-03-26T10:41:40;100096.66;;;29.64;31.87
38022;BME280;23832;43.216;27.946;2023-03-26T10:43:55;100101.72;;;29.26;32.28
38022;BME280;23832;43.216;27.946;2023-03-26T10:48:22;100098.69;;;26.99;35.13
38022;BME280;23832;43.216;27.946;2023-03-26T10:52:45;100100.75;;;28.63;34.04
38022;BME280;23832;43.216;27.946;2023-03-26T10:54:52;100093.13;;;30.86;30.86
38022;BME280;23832;43.216;27.946;2023-03-26T10:56:55;100097.09;;;31.79;30.72
38022;BME280;23832;43.216;27.946;2023-03-26T10:58:58;100100.22;;;31.51;30.34
38022;BME280;23832;43.216;27.946;2023-03-26T11:01:03;100098.88;;;31.75;29.75
38022;BME280;23832;43.216;27.946;2023-03-26T11:03:17;100091.66;;;30.54;30.77
38022;BME280;23832;43.216;27.946;2023-03-26T11:05:25;100096.53;;;30.09;30.64
38022;BME280;23832;43.216;27.946;2023-03-26T11:07:31;100101.06;;;28.98;31.88
38022;BME280;23832;43.216;27.946;2023-03-26T11:09:39;100103.31;;;27.91;33.19
38022;BME280;23832;43.216;27.946;2023-03-26T11:11:46;100102.16;;;27.64;33.46
38022;BME280;23832;43.216;27.946;2023-03-26T11:13:52;100106.53;;;27.33;34.35
38022;BME280;23832;43.216;27.946;2023-03-26T11:15:59;100105.41;;;27.66;33.98
38022;BME280;23832;43.216;27.946;2023-03-26T11:18:05;100101.22;;;28.15;33.77
38022;BME280;23832;43.216;27.946;2023-03-26T11:20:12;100105.19;;;28.59;32.94
38022;BME280;23832;43.216;27.946;2023-03-26T11:22:25;100109.44;;;27.83;33.60